sensor_id;sensor_type;location;lat;lon;timestamp;temperature;humidity
19003;DHT22;9634;51.040;13.794;2022-12-04T00:04:52;3.80;99.90
19003;DHT22;9634;51.040;13.794;2022-12-04T00:09:56;3.80;99.90
19003;DHT22;9634;51.040;13.794;2022-12-04T00:14:58;3.80;99.90
19003;DHT22;9634;51.040;13.794;2022-12-04T00:20:00;3.80;99.90
19003;DHT22;9634;51.040;13.794;2022-12-04T00:25:05;3.80;99.90
19003;DHT22;9634;51.040;13.794;2022-12-04T00:30:08;3.90;99.90
19003;DHT22;9634;51.040;13.794;2022-12-04T00:35:10;3.90;99.90
19003;DHT22;9634;51.040;13.794;2022-12-04T00:40:14;3.90;99.90
19003;DHT22;9634;51.040;13.794;2022-12-04T00:45:17;3.90;99.90
19003;DHT22;9634;51.040;13.794;2022-12-04T00:50:19;3.80;99.90
19003;DHT22;9634;51.040;13.794;2022-12-04T00:55:22;3.80;99.90
19003;DHT22;9634;51.040;13.794;2022-12-04T01:00:25;3.80;99.90
19003;DHT22;9634;51.040;13.794;2022-12-04T01:05:27;3.90;99.90
19003;DHT22;9634;51.040;13.794;2022-12-04T01:10:31;3.80;99.90
19003;DHT22;9634;51.040;13.794;2022-12-04T01:15:33;3.90;99.90
19003;DHT22;9634;51.040;13.794;2022-12-04T01:20:39;3.90;99.90
19003;DHT22;9634;51.040;13.794;2022-12-04T01:25:50;3.90;99.90
19003;DHT22;9634;51.040;13.794;2022-12-04T01:30:58;3.90;99.90
19003;DHT22;9634;51.040;13.794;2022-12-04T01:36:02;3.90;99.90
19003;DHT22;9634;51.040;13.794;2022-12-04T01:41:06;3.90;99.90
19003;DHT22;9634;51.040;13.794;2022-12-04T01:46:09;3.90;99.90
19003;DHT22;9634;51.040;13.794;2022-12-04T01:51:15;3.90;99.90
19003;DHT22;9634;51.040;13.794;2022-12-04T01:56:22;3.90;99.90
19003;DHT22;9634;51.040;13.794;2022-12-04T02:01:26;3.80;99.90
19003;DHT22;9634;51.040;13.794;2022-12-04T02:06:30;3.80;99.90
19003;DHT22;9634;51.040;13.794;2022-12-04T02:11:37;3.90;99.90
19003;DHT22;9634;51.040;13.794;2022-12-04T02:16:46;3.90;99.90
19003;DHT22;9634;51.040;13.794;2022-12-04T02:21:52;3.90;99.90
19003;DHT22;9634;51.040;13.794;2022-12-04T02:27:00;3.80;99.90
19003;DHT22;9634;51.040;13.794;2022-12-04T02:32:11;3.80;99.90
19003;DHT22;9634;51.040;13.794;2022-12-04T02:37:20;3.80;99.90
19003;DHT22;9634;51.040;13.794;2022-12-04T02:42:29;3.80;99.90
19003;DHT22;9634;51.040;13.794;2022-12-04T02:47:35;3.80;99.90
19003;DHT22;9634;51.040;13.794;2022-12-04T02:52:44;3.70;99.90
19003;DHT22;9634;51.040;13.794;2022-12-04T02:57:49;3.70;99.90
19003;DHT22;9634;51.040;13.794;2022-12-04T03:02:55;3.80;99.90
19003;DHT22;9634;51.040;13.794;2022-12-04T03:08:02;3.80;99.90
19003;DHT22;9634;51.040;13.794;2022-12-04T03:13:10;3.90;99.90
19003;DHT22;9634;51.040;13.794;2022-12-04T03:18:18;3.90;99.90
19003;DHT22;9634;51.040;13.794;2022-12-04T05:22:30;4.30;99.90
19003;DHT22;9634;51.040;13.794;2022-12-04T05:27:33;4.30;99.90
19003;DHT22;9634;51.040;13.794;2022-12-04T07:31:41;4.70;99.90
19003;DHT22;9634;51.040;13.794;2022-12-04T07:36:44;4.80;99.90
19003;DHT22;9634;51.040;13.794;2022-12-04T07:41:46;4.90;99.90
19003;DHT22;9634;51.040;13.794;2022-12-04T07:46:50;5.00;99.90
19003;DHT22;9634;51.040;13.794;2022-12-04T07:51:52;4.90;99.90
19003;DHT22;9634;51.040;13.794;2022-12-04T07:56:54;5.00;99.90
19003;DHT22;9634;51.040;13.794;2022-12-04T08:01:58;5.10;99.90
19003;DHT22;9634;51.040;13.794;2022-12-04T08:07:00;5.40;99.90
19003;DHT22;9634;51.040;13.794;2022-12-04T08:12:02;5.50;99.90
19003;DHT22;9634;51.040;13.794;2022-12-04T08:17:06;5.50;99.90
19003;DHT22;9634;51.040;13.794;2022-12-04T08:22:08;5.60;99.90
19003;DHT22;9634;51.040;13.794;2022-12-04T08:27:10;5.50;99.90
19003;DHT22;9634;51.040;13.794;2022-12-04T08:32:14;5.50;99.90
19003;DHT22;9634;51.040;13.794;2022-12-04T08:37:17;5.60;99.90
19003;DHT22;9634;51.040;13.794;2022-12-04T08:42:19;5.60;99.90
19003;DHT22;9634;51.040;13.794;2022-12-04T08:47:22;5.70;99.90
19003;DHT22;9634;51.040;13.794;2022-12-04T08:52:24;6.10;99.90
19003;DHT22;9634;51.040;13.794;2022-12-04T08:57:27;6.40;99.90
19003;DHT22;9634;51.040;13.794;2022-12-04T09:02:30;6.60;99.90
19003;DHT22;9634;51.040;13.794;2022-12-04T09:07:33;6.70;99.90
19003;DHT22;9634;51.040;13.794;2022-12-04T09:12:35;6.90;99.90
19003;DHT22;9634;51.040;13.794;2022-12-04T09:17:38;7.20;99.90
19003;DHT22;9634;51.040;13.794;2022-12-04T09:22:41;7.40;99.90
19003;DHT22;9634;51.040;13.794;2022-12-04T09:27:43;7.60;99.90
19003;DHT22;9634;51.040;13.794;2022-12-04T09:32:47;7.70;99.90
19003;DHT22;9634;51.040;13.794;2022-12-04T09:37:49;7.90;99.90
19003;DHT22;9634;51.040;13.794;2022-12-04T09:42:59;7.90;1.00
19003;DHT22;9634;51.040;13.794;2022-12-04T09:48:10;8.00;1.00
19003;DHT22;9634;51.040;13.794;2022-12-04T09:53:17;8.00;1.00
19003;DHT22;9634;51.040;13.794;2022-12-04T09:58:22;7.90;1.00
19003;DHT22;9634;51.040;13.794;2022-12-04T10:03:27;7.90;1.00
19003;DHT22;9634;51.040;13.794;2022-12-04T10:08:34;7.80;1.00
19003;DHT22;9634;51.040;13.794;2022-12-04T10:13:52;7.80;1.00
19003;DHT22;9634;51.040;13.794;2022-12-04T10:19:03;7.80;1.00
19003;DHT22;9634;51.040;13.794;2022-12-04T10:24:18;7.90;1.00
19003;DHT22;9634;51.040;13.794;2022-12-04T10:29:26;7.90;1.00
19003;DHT22;9634;51.040;13.794;2022-12-04T10:34:31;7.80;1.00
19003;DHT22;9634;51.040;13.794;2022-12-04T10:39:37;7.90;1.00
19003;DHT22;9634;51.040;13.794;2022-12-04T10:44:42;7.90;1.00
19003;DHT22;9634;51.040;13.794;2022-12-04T10:49:46;7.90;1.00
19003;DHT22;9634;51.040;13.794;2022-12-04T10:54:50;8.00;1.00
19003;DHT22;9634;51.040;13.794;2022-12-04T10:59:55;8.00;1.00
19003;DHT22;9634;51.040;13.794;2022-12-04T11:05:03;8.00;1.00
19003;DHT22;9634;51.040;13.794;2022-12-04T11:10:18;8.10;1.00
19003;DHT22;9634;51.040;13.794;2022-12-04T11:15:22;8.30;99.90
19003;DHT22;9634;51.040;13.794;2022-12-04T11:20:26;8.30;99.90
19003;DHT22;9634;51.040;13.794;2022-12-04T11:25:33;8.30;99.90
19003;DHT22;9634;51.040;13.794;2022-12-04T11:30:37;8.30;99.90
19003;DHT22;9634;51.040;13.794;2022-12-04T11:35:41;8.30;99.90
19003;DHT22;9634;51.040;13.794;2022-12-04T11:40:46;8.30;99.90
19003;DHT22;9634;51.040;13.794;2022-12-04T11:45:56;8.40;99.90
19003;DHT22;9634;51.040;13.794;2022-12-04T11:51:06;8.40;99.90
19003;DHT22;9634;51.040;13.794;2022-12-04T13:55:37;8.40;1.00
19003;DHT22;9634;51.040;13.794;2022-12-04T14:00:41;8.40;1.00
19003;DHT22;9634;51.040;13.794;2022-12-04T14:05:44;8.40;1.00
19003;DHT22;9634;51.040;13.794;2022-12-04T14:10:57;8.40;1.00
19003;DHT22;9634;51.040;13.794;2022-12-04T14:16:03;8.30;1.00
19003;DHT22;9634;51.040;13.794;2022-12-04T14:21:06;8.30;1.00
19003;DHT22;9634;51.040;13.794;2022-12-04T14:26:21;8.40;1.00
19003;DHT22;9634;51.040;13.794;2022-12-04T14:31:31;8.40;1.00
19003;DHT22;9634;51.040;13.794;2022-12-04T14:36:40;8.30;1.00
19003;DHT22;9634;51.040;13.794;2022-12-04T14:41:44;8.20;99.90
19003;DHT22;9634;51.040;13.794;2022-12-04T14:46:48;8.30;99.90
19003;DHT22;9634;51.040;13.794;2022-12-04T14:51:58;8.00;99.90
19003;DHT22;9634;51.040;13.794;2022-12-04T14:57:21;7.50;1.00
19003;DHT22;9634;51.040;13.794;2022-12-04T15:02:31;7.10;99.90
19003;DHT22;9634;51.040;13.794;2022-12-04T15:07:34;6.90;99.90
19003;DHT22;9634;51.040;13.794;2022-12-04T15:12:45;6.90;1.00
19003;DHT22;9634;51.040;13.794;2022-12-04T15:17:59;7.10;1.00
19003;DHT22;9634;51.040;13.794;2022-12-04T15:23:01;7.10;1.00
19003;DHT22;9634;51.040;13.794;2022-12-04T15:28:11;7.30;1.00
19003;DHT22;9634;51.040;13.794;2022-12-04T15:33:17;7.30;1.00
19003;DHT22;9634;51.040;13.794;2022-12-04T15:38:20;7.20;1.00
19003;DHT22;9634;51.040;13.794;2022-12-04T15:43:27;7.10;1.00
19003;DHT22;9634;51.040;13.794;2022-12-04T15:48:30;7.00;1.00
19003;DHT22;9634;51.040;13.794;2022-12-04T15:53:35;7.00;1.00
19003;DHT22;9634;51.040;13.794;2022-12-04T15:58:40;7.00;1.00
19003;DHT22;9634;51.040;13.794;2022-12-04T16:03:46;6.90;1.00
19003;DHT22;9634;51.040;13.794;2022-12-04T16:08:51;6.90;1.00
19003;DHT22;9634;51.040;13.794;2022-12-04T16:14:05;6.90;1.00
19003;DHT22;9634;51.040;13.794;2022-12-04T16:19:17;7.10;1.00
19003;DHT22;9634;51.040;13.794;2022-12-04T16:24:23;7.20;1.00
19003;DHT22;9634;51.040;13.794;2022-12-04T16:29:27;7.30;1.00
19003;DHT22;9634;51.040;13.794;2022-12-04T16:34:31;7.20;1.00
19003;DHT22;9634;51.040;13.794;2022-12-04T16:39:33;7.30;1.00
19003;DHT22;9634;51.040;13.794;2022-12-04T16:44:37;7.30;1.00
19003;DHT22;9634;51.040;13.794;2022-12-04T16:49:41;7.40;1.00
19003;DHT22;9634;51.040;13.794;2022-12-04T16:54:44;7.40;1.00
19003;DHT22;9634;51.040;13.794;2022-12-04T16:59:47;7.40;1.00
19003;DHT22;9634;51.040;13.794;2022-12-04T17:04:49;7.40;1.00
19003;DHT22;9634;51.040;13.794;2022-12-04T17:09:52;7.50;99.90
19003;DHT22;9634;51.040;13.794;2022-12-04T17:14:57;7.50;99.90
19003;DHT22;9634;51.040;13.794;2022-12-04T17:19:59;7.60;99.90
19003;DHT22;9634;51.040;13.794;2022-12-04T17:25:01;7.60;99.90
19003;DHT22;9634;51.040;13.794;2022-12-04T17:30:06;7.50;99.90
19003;DHT22;9634;51.040;13.794;2022-12-04T17:35:11;7.50;99.90
19003;DHT22;9634;51.040;13.794;2022-12-04T17:40:13;7.50;99.90
19003;DHT22;9634;51.040;13.794;2022-12-04T17:45:17;7.50;99.90
19003;DHT22;9634;51.040;13.794;2022-12-04T17:50:19;7.50;99.90
19003;DHT22;9634;51.040;13.794;2022-12-04T17:55:22;7.40;99.90
19003;DHT22;9634;51.040;13.794;2022-12-04T18:00:25;7.50;99.90
19003;DHT22;9634;51.040;13.794;2022-12-04T18:05:29;7.60;99.90
19003;DHT22;9634;51.040;13.794;2022-12-04T18:10:33;7.80;1.00
19003;DHT22;9634;51.040;13.794;2022-12-04T18:15:39;7.80;1.00
19003;DHT22;9634;51.040;13.794;2022-12-04T18:20:41;8.00;1.00
19003;DHT22;9634;51.040;13.794;2022-12-04T18:25:53;8.00;99.90
19003;DHT22;9634;51.040;13.794;2022-12-04T18:31:00;8.00;99.90
19003;DHT22;9634;51.040;13.794;2022-12-04T18:36:03;8.00;99.90
19003;DHT22;9634;51.040;13.794;2022-12-04T18:41:08;8.10;1.00
19003;DHT22;9634;51.040;13.794;2022-12-04T18:46:14;8.20;1.00
19003;DHT22;9634;51.040;13.794;2022-12-04T18:51:20;8.20;1.00
19003;DHT22;9634;51.040;13.794;2022-12-04T18:56:23;8.20;1.00
19003;DHT22;9634;51.040;13.794;2022-12-04T19:01:27;8.20;1.00
19003;DHT22;9634;51.040;13.794;2022-12-04T19:06:32;8.20;99.90
19003;DHT22;9634;51.040;13.794;2022-12-04T19:11:35;8.20;99.90
19003;DHT22;9634;51.040;13.794;2022-12-04T19:16:39;8.20;1.00
19003;DHT22;9634;51.040;13.794;2022-12-04T19:21:41;8.20;1.00
19003;DHT22;9634;51.040;13.794;2022-12-04T19:26:44;8.30;1.00
19003;DHT22;9634;51.040;13.794;2022-12-04T19:31:48;8.20;1.00
19003;DHT22;9634;51.040;13.794;2022-12-04T19:36:52;8.20;99.90
19003;DHT22;9634;51.040;13.794;2022-12-04T19:41:55;8.10;99.90
19003;DHT22;9634;51.040;13.794;2022-12-04T19:46:58;8.10;1.00
19003;DHT22;9634;51.040;13.794;2022-12-04T19:52:01;8.20;99.90
19003;DHT22;9634;51.040;13.794;2022-12-04T19:57:03;8.20;99.90
19003;DHT22;9634;51.040;13.794;2022-12-04T20:02:08;8.20;99.90
19003;DHT22;9634;51.040;13.794;2022-12-04T20:07:11;8.20;1.00
19003;DHT22;9634;51.040;13.794;2022-12-04T20:12:14;8.30;1.00
19003;DHT22;9634;51.040;13.794;2022-12-04T20:17:18;8.30;1.00
19003;DHT22;9634;51.040;13.794;2022-12-04T20:22:20;8.20;1.00
19003;DHT22;9634;51.040;13.794;2022-12-04T20:27:22;8.20;99.90
19003;DHT22;9634;51.040;13.794;2022-12-04T20:32:26;8.20;1.00
19003;DHT22;9634;51.040;13.794;2022-12-04T20:37:28;8.30;32.50
19003;DHT22;9634;51.040;13.794;2022-12-04T20:42:31;8.30;1.00
19003;DHT22;9634;51.040;13.794;2022-12-04T20:47:35;8.30;1.00
19003;DHT22;9634;51.040;13.794;2022-12-04T20:52:37;8.30;1.00
19003;DHT22;9634;51.040;13.794;2022-12-04T20:57:39;8.30;1.00
19003;DHT22;9634;51.040;13.794;2022-12-04T21:02:44;8.20;1.00
19003;DHT22;9634;51.040;13.794;2022-12-04T21:07:46;8.30;1.00
19003;DHT22;9634;51.040;13.794;2022-12-04T21:12:48;8.30;33.90
19003;DHT22;9634;51.040;13.794;2022-12-04T21:18:09;8.30;1.00
19003;DHT22;9634;51.040;13.794;2022-12-04T21:23:11;8.40;99.90
19003;DHT22;9634;51.040;13.794;2022-12-04T21:28:13;8.40;1.00
19003;DHT22;9634;51.040;13.794;2022-12-04T21:33:17;8.30;99.90
19003;DHT22;9634;51.040;13.794;2022-12-04T21:38:19;8.30;99.90
19003;DHT22;9634;51.040;13.794;2022-12-04T21:43:21;8.20;99.90
19003;DHT22;9634;51.040;13.794;2022-12-04T21:48:25;8.20;99.90
19003;DHT22;9634;51.040;13.794;2022-12-04T21:53:28;8.20;97.50
19003;DHT22;9634;51.040;13.794;2022-12-04T21:58:53;8.20;1.00
19003;DHT22;9634;51.040;13.794;2022-12-04T22:04:14;8.30;1.00
19003;DHT22;9634;51.040;13.794;2022-12-04T22:09:17;8.30;99.90
19003;DHT22;9634;51.040;13.794;2022-12-04T22:14:19;8.20;99.90
19003;DHT22;9634;51.040;13.794;2022-12-04T22:19:23;8.20;1.00
19003;DHT22;9634;51.040;13.794;2022-12-04T22:24:25;8.20;1.00
19003;DHT22;9634;51.040;13.794;2022-12-04T22:29:27;8.10;1.00
19003;DHT22;9634;51.040;13.794;2022-12-04T22:34:31;8.10;1.00
19003;DHT22;9634;51.040;13.794;2022-12-04T22:39:34;8.00;1.00
19003;DHT22;9634;51.040;13.794;2022-12-04T22:44:36;7.90;99.90
19003;DHT22;9634;51.040;13.794;2022-12-04T22:49:39;7.90;34.00
19003;DHT22;9634;51.040;13.794;2022-12-04T22:54:42;7.90;99.90
19003;DHT22;9634;51.040;13.794;2022-12-04T22:59:44;7.90;1.00
19003;DHT22;9634;51.040;13.794;2022-12-04T23:04:48;7.90;1.00
19003;DHT22;9634;51.040;13.794;2022-12-04T23:09:50;7.90;1.00
19003;DHT22;9634;51.040;13.794;2022-12-04T23:14:52;8.00;1.00
19003;DHT22;9634;51.040;13.794;2022-12-04T23:19:56;7.90;1.00
19003;DHT22;9634;51.040;13.794;2022-12-04T23:24:58;7.90;99.90
19003;DHT22;9634;51.040;13.794;2022-12-04T23:30:00;8.00;1.00
19003;DHT22;9634;51.040;13.794;2022-12-04T23:35:05;8.00;1.00
19003;DHT22;9634;51.040;13.794;2022-12-04T23:40:08;8.00;1.00
19003;DHT22;9634;51.040;13.794;2022-12-04T23:45:10;8.00;1.00
19003;DHT22;9634;51.040;13.794;2022-12-04T23:50:14;8.00;1.00
